• Join FlightAware (Why Join?)
  • Login
  • US Flag 
07:46AM EST


 

Airport Tracker/Info


-or-


 

Live Flight TrackerFlight Track Log ✈ CPZ5805 ✈ 30-Apr-2013 ✈ KBDL - KMSP

Flight Track Log - Related Links

Times and Time Zones

All times are in EDT time to prevent confusion due to time zone crossing. See the CPZ5805 flight status page for this flight to view local times or setup timezone preferences in your user account.

Time Position Orientation Groundspeed Altitude Reporting Facility
EDT Latitude Longitude Course Direction KTS MPH feet Rate Location/Type
11:53AM 41.9667 -72.6411 53° Northeast 171 197 1,900  Level Boston Center
11:54AM 42.0064 -72.6244 17° North 213 245 3,200 1,860 Climbing Boston Center
11:55AM 42.2206 -72.8914 334° Northwest  Level FlightAware Approximate
11:55AM 42.0481 -72.6750 318° Northwest 200 230 5,300  Level Boston Center
11:56AM 42.2806 -72.9894 265° West  Level FlightAware Approximate
11:56AM 42.1061 -72.7394 321° Northwest 246 283 8,400  Level Boston Center
11:57AM 42.2698 -73.1395 265° West  Level FlightAware Approximate
11:57AM 42.1747 -72.8156 321° Northwest 284 327 10,700  Level Boston Center
11:58AM 42.2571 -73.2893 263° West  Level FlightAware Approximate
11:58AM 42.2350 -72.8858 319° Northwest 312 359 13,200  Level Boston Center
11:59AM 42.2864 -72.9931 303° West 317 365 15,400 2,160 Climbing Boston Center
12:00PM 42.2775 -73.1108 264° West 324 373 17,600 1,440 Climbing Boston Center
12:01PM 42.2661 -73.2622 264° West 375 432 18,300 1,260 Climbing Boston Center
12:02PM 42.2547 -73.3911 263° West 393 452 20,100 1,860 Climbing Boston Center
12:03PM 42.2408 -73.5394 263° West 393 452 22,100 1,800 Climbing Boston Center
12:04PM 42.2289 -73.6906 264° West 400 460 23,800 1,560 Climbing Boston Center
12:05PM 42.2081 -73.8611 261° West 418 481 25,300 1,440 Climbing Boston Center
12:06PM 42.1956 -74.0150 264° West 418 481 26,700 1,260 Climbing Boston Center
12:07PM 42.1808 -74.1689 263° West 418 481 27,800 960 Climbing Boston Center
12:09PM 42.1489 -74.4689 262° West 405 466 29,800 1,080 Climbing New York Center
12:10PM 42.1356 -74.6275 264° West 418 481 31,100 1,200 Climbing New York Center
12:11PM 42.1222 -74.7803 263° West 423 487 32,200 840 Climbing New York Center
12:12PM 42.1106 -74.9361 264° West 423 487 32,900 780 Climbing New York Center
12:13PM 42.0981 -75.1058 264° West 423 487 33,800 540 Climbing New York Center
12:14PM 42.0883 -75.2561 265° West 423 487 34,000 60 Climbing New York Center
12:15PM 42.0742 -75.4089 263° West 423 487 34,000  Level New York Center
12:16PM 42.0642 -75.5617 265° West 423 487 34,000  Level New York Center
12:17PM 42.0517 -75.7144 264° West 423 487 34,000  Level New York Center
12:18PM 42.0389 -75.8642 263° West 423 487 34,000  Level New York Center
12:19PM 42.0261 -76.0194 264° West 423 487 34,000  Level New York Center
12:20PM 42.0128 -76.1719 263° West 423 487 34,000  Level New York Center
12:21PM 42.0017 -76.3247 264° West 423 487 34,000  Level New York Center
12:22PM 41.9892 -76.4603 263° West 416 479 34,000  Level New York Center
12:23PM 41.9775 -76.6128 264° West 416 479 34,000  Level New York Center
12:24PM 41.9639 -76.7622 263° West 416 479 34,000  Level New York Center
12:25PM 41.9497 -76.9169 263° West 421 484 34,000  Level New York Center
12:26PM 41.9378 -77.0667 264° West 421 484 34,000  Level New York Center
12:26PM 41.9267 -77.1892 263° West 422 486 34,000  Level Cleveland Center
12:27PM 41.9122 -77.3378 263° West 417 480 34,000  Level Cleveland Center
12:28PM 41.9017 -77.4919 265° West 417 480 34,000  Level Cleveland Center
12:29PM 41.9181 -77.6419 278° West 411 473 34,000  Level Cleveland Center
12:30PM 41.9425 -77.7858 283° West 405 466 34,000  Level Cleveland Center
12:31PM 41.9669 -77.9328 283° West 405 466 34,000  Level Cleveland Center
12:32PM 41.9892 -78.0800 282° West 410 472 34,000  Level Cleveland Center
12:33PM 42.0086 -78.2106 281° West 405 466 34,000  Level Cleveland Center
12:34PM 42.0322 -78.3578 282° West 405 466 34,000  Level Cleveland Center
12:35PM 42.0539 -78.5053 281° West 405 466 34,000  Level Cleveland Center
12:36PM 42.0772 -78.6528 282° West 413 475 34,000  Level Cleveland Center
12:37PM 42.1006 -78.8061 282° West 413 475 34,000  Level Cleveland Center
12:38PM 42.1236 -78.9678 281° West 413 475 34,000  Level Cleveland Center
12:39PM 42.1486 -79.1183 283° West 413 475 34,000  Level Cleveland Center
12:40PM 42.1714 -79.2692 282° West 413 475 34,000  Level Cleveland Center
12:41PM 42.1939 -79.4172 282° West 413 475 34,000  Level Cleveland Center
12:42PM 42.2139 -79.5683 280° West 413 475 34,000  Level Cleveland Center
12:43PM 42.2339 -79.7194 280° West 413 475 34,000  Level Cleveland Center
12:44PM 42.2578 -79.8678 282° West 413 475 34,000  Level Cleveland Center
12:45PM 42.2733 -80.0050 279° West 413 475 34,000  Level Cleveland Center
12:46PM 42.2969 -80.1536 282° West 413 475 34,000  Level Cleveland Center
12:47PM 42.3161 -80.3053 280° West 405 466 34,000  Level Cleveland Center
12:48PM 42.3372 -80.4594 281° West 421 484 34,000  Level Cleveland Center
12:49PM 42.3603 -80.6281 281° West 421 484 34,000  Level Cleveland Center
12:50PM 42.3789 -80.7772 280° West 416 479 34,000  Level Cleveland Center
12:51PM 42.3972 -80.9233 280° West 405 466 34,000  Level Cleveland Center
12:52PM 42.4175 -81.0725 280° West 410 472 34,000  Level Cleveland Center
12:53PM 42.4356 -81.2217 279° West 410 472 34,000  Level Cleveland Center
12:54PM 42.4575 -81.3739 281° West 410 472 34,000  Level Cleveland Center
12:55PM 42.4772 -81.5233 280° West 410 472 34,000  Level Cleveland Center
12:56PM 42.4947 -81.6700 279° West 410 472 34,000  Level Cleveland Center
12:57PM 42.5100 -81.8056 279° West 410 472 34,000  Level Cleveland Center
12:58PM 42.5292 -81.9581 280° West 410 472 34,000  Level Cleveland Center
12:59PM 42.5461 -82.1050 279° West 410 472 34,000  Level Cleveland Center
01:00PM 42.5647 -82.2550 280° West 410 472 34,000  Level Cleveland Center
01:01PM 42.5814 -82.4019 279° West 410 472 34,000  Level Cleveland Center
01:02PM 42.5997 -82.5547 279° West 410 472 34,000  Level Cleveland Center
01:03PM 42.6156 -82.7078 278° West 410 472 34,000  Level Cleveland Center
01:04PM 42.6336 -82.8578 279° West 410 472 34,000  Level Cleveland Center
01:05PM 42.6514 -83.0053 279° West 410 472 34,000  Level Cleveland Center
01:06PM 42.6669 -83.1583 278° West 410 472 34,000  Level Cleveland Center
01:07PM 42.6842 -83.3117 279° West 410 472 34,000  Level Cleveland Center
01:08PM 42.6992 -83.4650 278° West 410 472 34,000  Level Cleveland Center
01:09PM 42.7161 -83.6183 279° West 410 472 34,000  Level Cleveland Center
01:10PM 42.7328 -83.7717 278° West 410 472 34,000  Level Cleveland Center
01:11PM 42.7597 -83.9258 283° West 410 472 34,000  Level Cleveland Center
01:12PM 42.8078 -84.0644 295° West 404 465 34,000  Level Cleveland Center
01:13PM 42.8533 -84.2058 294° West 409 471 34,000  Level Cleveland Center
01:14PM 42.8969 -84.3444 293° West 409 471 34,000  Level Cleveland Center
01:15PM 42.9194 -84.4047 297° West 413 475 34,000  Level Chicago Center
01:16PM 42.9664 -84.5503 294° West 419 482 34,000  Level Chicago Center
01:17PM 43.0108 -84.6947 293° West 416 479 34,000  Level Chicago Center
01:18PM 43.0567 -84.8364 294° West 411 473 34,000  Level Chicago Center
01:19PM 43.1017 -84.9811 293° West 415 478 34,000  Level Chicago Center
01:20PM 43.1558 -85.1553 293° West 415 478 34,000  Level Chicago Center
01:21PM 43.2014 -85.2975 294° West 411 473 34,000  Level Chicago Center
01:22PM 43.2467 -85.4453 293° West 420 483 34,000  Level Chicago Center
01:23PM 43.2922 -85.5914 293° West 422 486 34,000  Level Chicago Center
01:24PM 43.3447 -85.7650 293° West 416 479 34,000  Level Chicago Center
01:25PM 43.3886 -85.9092 293° West 415 478 34,000  Level Chicago Center
01:26PM 43.4317 -86.0517 293° West 410 472 34,000  Level Chicago Center
01:27PM 43.4669 -86.1686 293° West 414 476 34,000  Level Chicago Center
01:28PM 43.5106 -86.3122 293° West 411 473 34,000  Level Chicago Center
01:29PM 43.5453 -86.4306 292° West 414 476 34,000  Level Minneapolis Center
01:30PM 43.5886 -86.5775 292° West 415 478 34,000  Level Minneapolis Center
01:30PM 43.6061 -86.6336 293° West 413 475 34,000  Level Chicago Center
01:31PM 43.6311 -86.7197 292° West 409 471 34,000  Level Minneapolis Center
01:32PM 43.6728 -86.8633 292° West 406 467 34,000  Level Minneapolis Center
01:33PM 43.7147 -87.0072 292° West 406 467 34,000  Level Minneapolis Center
01:34PM 43.7642 -87.1797 292° West 406 467 34,000  Level Minneapolis Center
01:35PM 43.8028 -87.3167 291° West 397 457 34,000  Level Minneapolis Center
01:36PM 43.8378 -87.4361 292° West 400 460 34,000  Level Chicago Center
01:37PM 43.8794 -87.5758 293° West 396 456 34,000  Level Chicago Center
01:38PM 43.9181 -87.7161 291° West 392 451 34,000  Level Chicago Center
01:39PM 43.9578 -87.8583 291° West 395 455 34,000  Level Chicago Center
01:40PM 44.0031 -88.0231 291° West 393 452 34,000  Level Chicago Center
01:41PM 44.0425 -88.1664 291° West 396 456 34,000  Level Chicago Center
01:42PM 44.0825 -88.3106 291° West 400 460 34,000  Level Chicago Center
01:43PM 44.1225 -88.4556 291° West 402 463 34,000  Level Chicago Center
01:44PM 44.1628 -88.6014 291° West 403 464 34,000  Level Chicago Center
01:45PM 44.2083 -88.7700 291° West 400 460 34,000  Level Chicago Center
01:46PM 44.2458 -88.9114 290° West 392 451 34,000  Level Chicago Center
01:47PM 44.2842 -89.0561 290° West 397 457 34,000 -120 Level Chicago Center
01:48PM 44.3222 -89.1994 290° West 396 456 33,800 -540 Descending Chicago Center
01:49PM 44.3614 -89.3497 290° West 409 471 32,900 -900 Descending Chicago Center
01:50PM 44.4064 -89.5225 290° West 407 468 32,000 -480 Descending Chicago Center
01:51PM 44.4450 -89.6683 290° West 402 463 32,000  Level Chicago Center
01:52PM 44.4883 -89.8383 290° West 398 458 32,000  Level Minneapolis Center
01:53PM 44.5231 -89.9878 288° West 403 464 32,000  Level Minneapolis Center
01:54PM 44.5472 -90.1403 283° West 402 463 32,000  Level Minneapolis Center
01:56PM 44.5756 -90.3153 283° West 396 456 32,000  Level Minneapolis Center
01:57PM 44.6003 -90.4633 283° West 391 450 32,000  Level Minneapolis Center
01:58PM 44.6206 -90.5908 283° West 389 448 32,000  Level Minneapolis Center
01:59PM 44.6494 -90.7683 283° West 390 449 32,000  Level Minneapolis Center
02:00PM 44.6717 -90.9150 282° West 386 444 32,000  Level Minneapolis Center
02:01PM 44.6939 -91.0628 282° West 387 445 32,000  Level Minneapolis Center
02:02PM 44.7153 -91.2119 281° West 389 448 32,000 -600 Level Minneapolis Center
02:03PM 44.7386 -91.3619 282° West 392 451 30,800 -2,220 Descending Minneapolis Center
02:04PM 44.7636 -91.5103 283° West 393 452 27,500 -3,480 Descending Minneapolis Center
02:05PM 44.7900 -91.6825 282° West 381 438 23,700 -3,360 Descending Minneapolis Center
02:06PM 44.8108 -91.8214 282° West 371 427 20,600 -3,060 Descending Minneapolis Center
02:07PM 44.8311 -91.9550 282° West 356 410 17,400 -2,880 Descending Minneapolis Center
02:08PM 44.8500 -92.0853 282° West 344 396 14,700 -2,820 Descending Minneapolis Center
02:09PM 44.8686 -92.2175 281° West 345 397 11,700 -2,280 Descending Minneapolis Center
02:10PM 44.8714 -92.3411 272° West 323 372 10,000 -900 Descending Minneapolis Center
02:11PM 44.8244 -92.4486 238° Southwest 262 302 9,900 -900 Descending Minneapolis Center
02:12PM 44.7878 -92.5267 237° Southwest 243 280 8,000 -1,320 Descending Minneapolis Center
02:13PM 44.7822 -92.6211 265° West 246 283 7,000 -1,200 Descending Minneapolis Center
02:14PM 44.7844 -92.7367 272° West 247 284 5,600 -1,320 Descending Minneapolis Center
02:15PM 44.7853 -92.8278 271° West 236 272 4,300 -780 Descending Minneapolis Center
02:16PM 44.7881 -92.9058 273° West 204 235 4,100 -180 Descending Minneapolis Center
02:17PM 44.7903 -92.9864 272° West 175 201 4,000 -300 Descending Minneapolis Center
02:18PM 44.8069 -93.0483 291° West 174 200 3,500 -780 Descending Minneapolis Center
02:19PM 44.8303 -93.1022 301° West 165 190 2,500 -840 Descending Minneapolis Center
02:20PM 44.8506 -93.1481 302° West 143 165 1,800 -720 Descending Minneapolis Center
02:21PM 44.8694 -93.1911 302° West 132 152 1,100 -720 Descending Minneapolis Center